sensor_id;sensor_type;location;lat;lon;timestamp;P1;durP1;ratioP1;P2;durP2;ratioP2
9186;SDS011;7273;48.902;9.410;2023-01-23T00:01:19;519.83;;;177.82;;
9186;SDS011;7273;48.902;9.410;2023-01-23T00:03:49;517.08;;;174.82;;
9186;SDS011;7273;48.902;9.410;2023-01-23T00:06:14;515.05;;;173.73;;
9186;SDS011;7273;48.902;9.410;2023-01-23T00:08:42;512.40;;;173.23;;
9186;SDS011;7273;48.902;9.410;2023-01-23T00:11:13;518.90;;;176.40;;
9186;SDS011;7273;48.902;9.410;2023-01-23T00:13:40;512.28;;;174.45;;
9186;SDS011;7273;48.902;9.410;2023-01-23T00:16:09;510.33;;;172.38;;
9186;SDS011;7273;48.902;9.410;2023-01-23T00:18:36;512.15;;;173.27;;
9186;SDS011;7273;48.902;9.410;2023-01-23T00:21:03;509.02;;;170.48;;
9186;SDS011;7273;48.902;9.410;2023-01-23T00:23:29;509.70;;;170.93;;
9186;SDS011;7273;48.902;9.410;2023-01-23T00:26:00;507.67;;;169.98;;
9186;SDS011;7273;48.902;9.410;2023-01-23T00:28:29;509.08;;;172.25;;
9186;SDS011;7273;48.902;9.410;2023-01-23T00:31:03;507.10;;;169.95;;
9186;SDS011;7273;48.902;9.410;2023-01-23T00:33:28;507.35;;;170.88;;
9186;SDS011;7273;48.902;9.410;2023-01-23T00:35:54;507.80;;;168.90;;
9186;SDS011;7273;48.902;9.410;2023-01-23T00:38:19;508.83;;;170.30;;
9186;SDS011;7273;48.902;9.410;2023-01-23T00:40:45;510.50;;;171.57;;
9186;SDS011;7273;48.902;9.410;2023-01-23T00:43:10;508.10;;;169.93;;
9186;SDS011;7273;48.902;9.410;2023-01-23T00:45:35;512.47;;;173.20;;
9186;SDS011;7273;48.902;9.410;2023-01-23T00:48:02;509.90;;;170.48;;
9186;SDS011;7273;48.902;9.410;2023-01-23T00:50:27;512.70;;;172.52;;
9186;SDS011;7273;48.902;9.410;2023-01-23T00:52:53;508.45;;;168.95;;
9186;SDS011;7273;48.902;9.410;2023-01-23T00:55:18;508.95;;;169.95;;
9186;SDS011;7273;48.902;9.410;2023-01-23T00:57:44;507.73;;;169.87;;
9186;SDS011;7273;48.902;9.410;2023-01-23T01:00:09;512.22;;;174.07;;
9186;SDS011;7273;48.902;9.410;2023-01-23T01:02:35;512.40;;;171.73;;
9186;SDS011;7273;48.902;9.410;2023-01-23T01:05:01;515.83;;;173.20;;
9186;SDS011;7273;48.902;9.410;2023-01-23T01:07:26;516.13;;;173.48;;
9186;SDS011;7273;48.902;9.410;2023-01-23T01:09:52;517.28;;;173.70;;
9186;SDS011;7273;48.902;9.410;2023-01-23T01:12:17;511.90;;;172.20;;
9186;SDS011;7273;48.902;9.410;2023-01-23T01:14:43;511.42;;;170.68;;
9186;SDS011;7273;48.902;9.410;2023-01-23T01:17:09;514.22;;;171.75;;
9186;SDS011;7273;48.902;9.410;2023-01-23T01:19:34;513.38;;;171.95;;
9186;SDS011;7273;48.902;9.410;2023-01-23T01:22:00;515.30;;;173.43;;
9186;SDS011;7273;48.902;9.410;2023-01-23T01:24:26;514.42;;;172.63;;
9186;SDS011;7273;48.902;9.410;2023-01-23T01:26:52;516.47;;;173.80;;
9186;SDS011;7273;48.902;9.410;2023-01-23T01:29:17;512.38;;;171.23;;
9186;SDS011;7273;48.902;9.410;2023-01-23T01:31:43;514.72;;;172.52;;
9186;SDS011;7273;48.902;9.410;2023-01-23T01:34:08;513.10;;;171.05;;
9186;SDS011;7273;48.902;9.410;2023-01-23T01:36:33;512.90;;;170.95;;
9186;SDS011;7273;48.902;9.410;2023-01-23T01:38:59;512.20;;;170.80;;
9186;SDS011;7273;48.902;9.410;2023-01-23T01:41:24;512.78;;;170.57;;
9186;SDS011;7273;48.902;9.410;2023-01-23T01:43:50;513.50;;;170.98;;
9186;SDS011;7273;48.902;9.410;2023-01-23T01:46:18;513.17;;;170.48;;
9186;SDS011;7273;48.902;9.410;2023-01-23T01:57:05;517.25;;;172.57;;
9186;SDS011;7273;48.902;9.410;2023-01-23T01:59:45;517.58;;;173.80;;
9186;SDS011;7273;48.902;9.410;2023-01-23T02:02:12;521.22;;;174.80;;
9186;SDS011;7273;48.902;9.410;2023-01-23T02:04:41;518.60;;;172.05;;
9186;SDS011;7273;48.902;9.410;2023-01-23T02:07:16;516.85;;;171.05;;
9186;SDS011;7273;48.902;9.410;2023-01-23T02:09:50;519.20;;;172.13;;
9186;SDS011;7273;48.902;9.410;2023-01-23T02:12:16;521.35;;;173.30;;
9186;SDS011;7273;48.902;9.410;2023-01-23T02:14:42;521.72;;;172.95;;
9186;SDS011;7273;48.902;9.410;2023-01-23T02:17:07;522.10;;;172.80;;
9186;SDS011;7273;48.902;9.410;2023-01-23T02:19:46;526.30;;;174.85;;
9186;SDS011;7273;48.902;9.410;2023-01-23T02:22:29;519.78;;;172.80;;
9186;SDS011;7273;48.902;9.410;2023-01-23T02:25:11;521.22;;;173.95;;
9186;SDS011;7273;48.902;9.410;2023-01-23T02:27:45;518.75;;;172.10;;
9186;SDS011;7273;48.902;9.410;2023-01-23T02:30:11;522.78;;;174.32;;
9186;SDS011;7273;48.902;9.410;2023-01-23T02:32:37;522.97;;;173.68;;
9186;SDS011;7273;48.902;9.410;2023-01-23T02:35:06;522.58;;;173.60;;
9186;SDS011;7273;48.902;9.410;2023-01-23T02:37:35;528.08;;;177.00;;
9186;SDS011;7273;48.902;9.410;2023-01-23T02:40:06;522.58;;;174.88;;
9186;SDS011;7273;48.902;9.410;2023-01-23T02:42:32;506.85;;;165.82;;
9186;SDS011;7273;48.902;9.410;2023-01-23T02:44:58;512.60;;;167.70;;
9186;SDS011;7273;48.902;9.410;2023-01-23T02:47:24;526.85;;;175.57;;
9186;SDS011;7273;48.902;9.410;2023-01-23T02:49:49;529.03;;;177.05;;
9186;SDS011;7273;48.902;9.410;2023-01-23T02:52:15;526.78;;;175.65;;
9186;SDS011;7273;48.902;9.410;2023-01-23T02:54:40;529.55;;;177.85;;
9186;SDS011;7273;48.902;9.410;2023-01-23T02:57:06;525.85;;;175.65;;
9186;SDS011;7273;48.902;9.410;2023-01-23T02:59:32;524.67;;;175.07;;
9186;SDS011;7273;48.902;9.410;2023-01-23T03:02:16;524.70;;;176.57;;
9186;SDS011;7273;48.902;9.410;2023-01-23T03:04:42;528.35;;;176.63;;
9186;SDS011;7273;48.902;9.410;2023-01-23T03:07:07;529.10;;;177.98;;
9186;SDS011;7273;48.902;9.410;2023-01-23T03:09:33;528.03;;;177.30;;
9186;SDS011;7273;48.902;9.410;2023-01-23T03:11:58;526.45;;;176.48;;
9186;SDS011;7273;48.902;9.410;2023-01-23T03:14:24;522.67;;;174.02;;
9186;SDS011;7273;48.902;9.410;2023-01-23T03:16:50;526.97;;;176.48;;
9186;SDS011;7273;48.902;9.410;2023-01-23T03:19:19;528.67;;;177.40;;
9186;SDS011;7273;48.902;9.410;2023-01-23T03:21:47;529.70;;;177.65;;
9186;SDS011;7273;48.902;9.410;2023-01-23T03:24:12;532.05;;;179.40;;
9186;SDS011;7273;48.902;9.410;2023-01-23T03:26:42;532.92;;;180.15;;
9186;SDS011;7273;48.902;9.410;2023-01-23T03:29:13;531.13;;;179.77;;
9186;SDS011;7273;48.902;9.410;2023-01-23T03:32:02;529.60;;;179.23;;
9186;SDS011;7273;48.902;9.410;2023-01-23T03:34:28;531.10;;;179.02;;
9186;SDS011;7273;48.902;9.410;2023-01-23T03:36:54;534.20;;;180.05;;
9186;SDS011;7273;48.902;9.410;2023-01-23T03:39:20;532.20;;;179.20;;
9186;SDS011;7273;48.902;9.410;2023-01-23T03:42:03;531.42;;;178.55;;
9186;SDS011;7273;48.902;9.410;2023-01-23T03:44:29;533.10;;;179.48;;
9186;SDS011;7273;48.902;9.410;2023-01-23T03:46:54;528.67;;;177.00;;
9186;SDS011;7273;48.902;9.410;2023-01-23T03:49:20;528.78;;;178.30;;
9186;SDS011;7273;48.902;9.410;2023-01-23T03:51:46;527.45;;;177.60;;
9186;SDS011;7273;48.902;9.410;2023-01-23T03:54:11;526.58;;;176.60;;
9186;SDS011;7273;48.902;9.410;2023-01-23T03:56:38;528.42;;;178.55;;
9186;SDS011;7273;48.902;9.410;2023-01-23T03:59:05;527.25;;;178.15;;
9186;SDS011;7273;48.902;9.410;2023-01-23T04:01:30;525.72;;;176.73;;
9186;SDS011;7273;48.902;9.410;2023-01-23T04:03:56;524.05;;;176.43;;
9186;SDS011;7273;48.902;9.410;2023-01-23T04:06:21;525.90;;;176.43;;
9186;SDS011;7273;48.902;9.410;2023-01-23T04:08:46;522.60;;;175.82;;
9186;SDS011;7273;48.902;9.410;2023-01-23T04:11:12;505.10;;;165.83;;
9186;SDS011;7273;48.902;9.410;2023-01-23T04:13:37;526.00;;;177.10;;
9186;SDS011;7273;48.902;9.410;2023-01-23T04:16:04;526.47;;;178.43;;
9186;SDS011;7273;48.902;9.410;2023-01-23T04:18:30;525.40;;;177.75;;
9186;SDS011;7273;48.902;9.410;2023-01-23T04:20:56;522.97;;;175.90;;
9186;SDS011;7273;48.902;9.410;2023-01-23T04:23:22;520.95;;;175.25;;
9186;SDS011;7273;48.902;9.410;2023-01-23T04:25:48;527.40;;;178.32;;
9186;SDS011;7273;48.902;9.410;2023-01-23T04:28:14;522.63;;;177.45;;
9186;SDS011;7273;48.902;9.410;2023-01-23T04:30:39;520.15;;;174.88;;
9186;SDS011;7273;48.902;9.410;2023-01-23T04:33:05;523.92;;;177.63;;
9186;SDS011;7273;48.902;9.410;2023-01-23T04:35:31;525.10;;;177.80;;
9186;SDS011;7273;48.902;9.410;2023-01-23T04:37:56;526.55;;;178.63;;
9186;SDS011;7273;48.902;9.410;2023-01-23T04:40:21;526.25;;;178.40;;
9186;SDS011;7273;48.902;9.410;2023-01-23T04:42:47;528.72;;;180.30;;
9186;SDS011;7273;48.902;9.410;2023-01-23T04:45:12;527.92;;;178.55;;
9186;SDS011;7273;48.902;9.410;2023-01-23T04:47:38;530.15;;;180.65;;
9186;SDS011;7273;48.902;9.410;2023-01-23T04:50:03;525.80;;;177.45;;
9186;SDS011;7273;48.902;9.410;2023-01-23T04:52:29;525.25;;;177.93;;
9186;SDS011;7273;48.902;9.410;2023-01-23T04:54:55;523.28;;;175.27;;
9186;SDS011;7273;48.902;9.410;2023-01-23T04:57:20;525.08;;;176.88;;
9186;SDS011;7273;48.902;9.410;2023-01-23T04:59:46;527.90;;;178.02;;
9186;SDS011;7273;48.902;9.410;2023-01-23T05:02:11;525.75;;;177.15;;
9186;SDS011;7273;48.902;9.410;2023-01-23T05:04:37;525.72;;;176.25;;
9186;SDS011;7273;48.902;9.410;2023-01-23T05:07:02;529.65;;;180.13;;
9186;SDS011;7273;48.902;9.410;2023-01-23T05:09:28;526.90;;;177.27;;
9186;SDS011;7273;48.902;9.410;2023-01-23T05:11:53;526.53;;;177.20;;
9186;SDS011;7273;48.902;9.410;2023-01-23T05:14:19;526.30;;;177.45;;
9186;SDS011;7273;48.902;9.410;2023-01-23T05:16:46;525.95;;;177.23;;
9186;SDS011;7273;48.902;9.410;2023-01-23T05:19:11;526.28;;;177.52;;
9186;SDS011;7273;48.902;9.410;2023-01-23T05:21:37;527.72;;;178.05;;
9186;SDS011;7273;48.902;9.410;2023-01-23T05:24:02;526.33;;;176.95;;
9186;SDS011;7273;48.902;9.410;2023-01-23T05:26:28;527.35;;;178.32;;
9186;SDS011;7273;48.902;9.410;2023-01-23T05:28:53;524.92;;;176.77;;
9186;SDS011;7273;48.902;9.410;2023-01-23T05:31:18;529.65;;;180.50;;
9186;SDS011;7273;48.902;9.410;2023-01-23T05:33:44;526.80;;;176.45;;
9186;SDS011;7273;48.902;9.410;2023-01-23T05:36:09;527.42;;;177.13;;
9186;SDS011;7273;48.902;9.410;2023-01-23T05:38:35;526.90;;;178.23;;
9186;SDS011;7273;48.902;9.410;2023-01-23T05:41:01;525.40;;;177.93;;
9186;SDS011;7273;48.902;9.410;2023-01-23T05:43:26;524.78;;;177.02;;
9186;SDS011;7273;48.902;9.410;2023-01-23T05:45:52;520.20;;;175.02;;
9186;SDS011;7273;48.902;9.410;2023-01-23T05:48:17;527.40;;;179.20;;
9186;SDS011;7273;48.902;9.410;2023-01-23T05:50:43;524.27;;;177.07;;
9186;SDS011;7273;48.902;9.410;2023-01-23T05:53:08;525.10;;;178.45;;
9186;SDS011;7273;48.902;9.410;2023-01-23T05:55:34;526.95;;;178.65;;
9186;SDS011;7273;48.902;9.410;2023-01-23T05:58:01;523.38;;;177.13;;
9186;SDS011;7273;48.902;9.410;2023-01-23T06:00:27;524.25;;;176.60;;
9186;SDS011;7273;48.902;9.410;2023-01-23T06:02:53;523.60;;;177.45;;
9186;SDS011;7273;48.902;9.410;2023-01-23T06:05:18;520.88;;;175.43;;
9186;SDS011;7273;48.902;9.410;2023-01-23T06:07:44;520.30;;;174.32;;
9186;SDS011;7273;48.902;9.410;2023-01-23T06:10:09;527.70;;;180.05;;
9186;SDS011;7273;48.902;9.410;2023-01-23T06:12:35;526.05;;;177.85;;
9186;SDS011;7273;48.902;9.410;2023-01-23T06:15:01;523.78;;;176.95;;
9186;SDS011;7273;48.902;9.410;2023-01-23T06:17:26;525.10;;;177.20;;
9186;SDS011;7273;48.902;9.410;2023-01-23T06:19:52;525.90;;;176.88;;
9186;SDS011;7273;48.902;9.410;2023-01-23T06:22:17;525.72;;;177.43;;
9186;SDS011;7273;48.902;9.410;2023-01-23T06:24:43;523.13;;;175.10;;
9186;SDS011;7273;48.902;9.410;2023-01-23T06:27:08;522.70;;;175.35;;
9186;SDS011;7273;48.902;9.410;2023-01-23T06:29:34;527.58;;;181.35;;
9186;SDS011;7273;48.902;9.410;2023-01-23T06:32:00;519.45;;;172.75;;
9186;SDS011;7273;48.902;9.410;2023-01-23T06:34:26;526.13;;;176.57;;
9186;SDS011;7273;48.902;9.410;2023-01-23T06:36:52;527.08;;;177.57;;
9186;SDS011;7273;48.902;9.410;2023-01-23T06:39:17;526.58;;;176.48;;
9186;SDS011;7273;48.902;9.410;2023-01-23T06:41:43;528.15;;;178.27;;
9186;SDS011;7273;48.902;9.410;2023-01-23T06:44:08;527.60;;;180.00;;
9186;SDS011;7273;48.902;9.410;2023-01-23T06:46:34;531.15;;;180.02;;
9186;SDS011;7273;48.902;9.410;2023-01-23T06:48:59;526.63;;;177.23;;
9186;SDS011;7273;48.902;9.410;2023-01-23T06:51:24;526.53;;;176.93;;
9186;SDS011;7273;48.902;9.410;2023-01-23T06:53:50;529.15;;;178.90;;
9186;SDS011;7273;48.902;9.410;2023-01-23T06:56:15;529.65;;;179.32;;
9186;SDS011;7273;48.902;9.410;2023-01-23T06:58:42;528.10;;;178.75;;
9186;SDS011;7273;48.902;9.410;2023-01-23T07:01:10;525.13;;;177.05;;
9186;SDS011;7273;48.902;9.410;2023-01-23T07:03:36;527.63;;;177.93;;
9186;SDS011;7273;48.902;9.410;2023-01-23T07:06:02;527.08;;;178.27;;
9186;SDS011;7273;48.902;9.410;2023-01-23T07:10:57;519.33;;;178.30;;
9186;SDS011;7273;48.902;9.410;2023-01-23T07:13:22;524.60;;;179.18;;
9186;SDS011;7273;48.902;9.410;2023-01-23T07:15:48;526.65;;;180.88;;
9186;SDS011;7273;48.902;9.410;2023-01-23T07:18:13;525.00;;;177.57;;
9186;SDS011;7273;48.902;9.410;2023-01-23T07:20:39;527.92;;;179.30;;
9186;SDS011;7273;48.902;9.410;2023-01-23T07:23:07;525.15;;;178.00;;
9186;SDS011;7273;48.902;9.410;2023-01-23T07:25:34;525.60;;;177.50;;
9186;SDS011;7273;48.902;9.410;2023-01-23T07:27:59;525.80;;;177.13;;
9186;SDS011;7273;48.902;9.410;2023-01-23T07:30:25;529.13;;;178.25;;
9186;SDS011;7273;48.902;9.410;2023-01-23T07:32:50;525.25;;;177.23;;
9186;SDS011;7273;48.902;9.410;2023-01-23T07:35:16;528.28;;;178.02;;
9186;SDS011;7273;48.902;9.410;2023-01-23T07:37:41;529.58;;;178.18;;
9186;SDS011;7273;48.902;9.410;2023-01-23T07:40:07;531.30;;;179.07;;
9186;SDS011;7273;48.902;9.410;2023-01-23T07:42:33;532.28;;;179.43;;
9186;SDS011;7273;48.902;9.410;2023-01-23T07:44:58;528.80;;;177.43;;
9186;SDS011;7273;48.902;9.410;2023-01-23T07:47:24;529.33;;;177.82;;
9186;SDS011;7273;48.902;9.410;2023-01-23T07:49:49;531.03;;;179.00;;
9186;SDS011;7273;48.902;9.410;2023-01-23T07:52:15;532.13;;;180.68;;
9186;SDS011;7273;48.902;9.410;2023-01-23T07:54:40;531.53;;;179.00;;
9186;SDS011;7273;48.902;9.410;2023-01-23T07:57:05;531.65;;;179.43;;
9186;SDS011;7273;48.902;9.410;2023-01-23T07:59:31;533.03;;;179.27;;
9186;SDS011;7273;48.902;9.410;2023-01-23T08:01:57;532.83;;;179.57;;
9186;SDS011;7273;48.902;9.410;2023-01-23T08:04:22;535.30;;;180.55;;
9186;SDS011;7273;48.902;9.410;2023-01-23T08:06:48;535.30;;;180.98;;
9186;SDS011;7273;48.902;9.410;2023-01-23T08:09:13;537.60;;;180.10;;
9186;SDS011;7273;48.902;9.410;2023-01-23T08:11:39;536.08;;;179.77;;
9186;SDS011;7273;48.902;9.410;2023-01-23T08:14:04;535.97;;;180.10;;
9186;SDS011;7273;48.902;9.410;2023-01-23T08:16:30;535.80;;;180.45;;
9186;SDS011;7273;48.902;9.410;2023-01-23T08:18:55;535.28;;;179.93;;
9186;SDS011;7273;48.902;9.410;2023-01-23T08:21:21;532.90;;;178.18;;
9186;SDS011;7273;48.902;9.410;2023-01-23T08:23:47;533.70;;;178.77;;
9186;SDS011;7273;48.902;9.410;2023-01-23T08:26:13;538.80;;;182.25;;
9186;SDS011;7273;48.902;9.410;2023-01-23T08:28:40;535.03;;;180.30;;
9186;SDS011;7273;48.902;9.410;2023-01-23T08:31:07;533.13;;;179.95;;
9186;SDS011;7273;48.902;9.410;2023-01-23T08:33:34;533.38;;;179.48;;
9186;SDS011;7273;48.902;9.410;2023-01-23T08:36:02;532.03;;;179.07;;
9186;SDS011;7273;48.902;9.410;2023-01-23T08:38:29;533.25;;;179.98;;
9186;SDS011;7273;48.902;9.410;2023-01-23T08:40:57;531.88;;;178.43;;
9186;SDS011;7273;48.902;9.410;2023-01-23T08:43:23;531.80;;;179.48;;
9186;SDS011;7273;48.902;9.410;2023-01-23T08:45:50;530.22;;;177.65;;
9186;SDS011;7273;48.902;9.410;2023-01-23T08:48:20;531.58;;;178.73;;
9186;SDS011;7273;48.902;9.410;2023-01-23T08:50:47;531.03;;;178.18;;
9186;SDS011;7273;48.902;9.410;2023-01-23T08:53:13;532.42;;;178.98;;
9186;SDS011;7273;48.902;9.410;2023-01-23T08:55:39;532.25;;;179.30;;
9186;SDS011;7273;48.902;9.410;2023-01-23T08:58:05;532.85;;;179.48;;
9186;SDS011;7273;48.902;9.410;2023-01-23T09:00:33;532.40;;;179.75;;
9186;SDS011;7273;48.902;9.410;2023-01-23T09:02:59;533.10;;;179.60;;
9186;SDS011;7273;48.902;9.410;2023-01-23T09:05:25;532.53;;;178.80;;
9186;SDS011;7273;48.902;9.410;2023-01-23T09:07:51;532.05;;;177.93;;
9186;SDS011;7273;48.902;9.410;2023-01-23T09:10:16;535.63;;;180.90;;
9186;SDS011;7273;48.902;9.410;2023-01-23T09:12:42;535.20;;;179.95;;
9186;SDS011;7273;48.902;9.410;2023-01-23T09:15:08;534.67;;;179.98;;
9186;SDS011;7273;48.902;9.410;2023-01-23T09:17:34;533.40;;;178.68;;
9186;SDS011;7273;48.902;9.410;2023-01-23T09:19:59;538.53;;;181.35;;
9186;SDS011;7273;48.902;9.410;2023-01-23T09:22:25;535.47;;;180.98;;
9186;SDS011;7273;48.902;9.410;2023-01-23T09:24:51;534.83;;;179.27;;
9186;SDS011;7273;48.902;9.410;2023-01-23T09:27:17;534.15;;;179.38;;
9186;SDS011;7273;48.902;9.410;2023-01-23T09:29:43;533.60;;;178.25;;
9186;SDS011;7273;48.902;9.410;2023-01-23T09:32:09;530.60;;;177.10;;
9186;SDS011;7273;48.902;9.410;2023-01-23T09:34:34;535.70;;;179.07;;
9186;SDS011;7273;48.902;9.410;2023-01-23T09:36:59;531.47;;;178.10;;
9186;SDS011;7273;48.902;9.410;2023-01-23T09:39:25;532.78;;;179.05;;
9186;SDS011;7273;48.902;9.410;2023-01-23T09:41:50;531.60;;;179.57;;
9186;SDS011;7273;48.902;9.410;2023-01-23T09:47:06;528.75;;;177.65;;
9186;SDS011;7273;48.902;9.410;2023-01-23T09:52:27;529.58;;;178.82;;
9186;SDS011;7273;48.902;9.410;2023-01-23T09:55:20;528.00;;;177.68;;
9186;SDS011;7273;48.902;9.410;2023-01-23T09:57:54;522.38;;;175.60;;
9186;SDS011;7273;48.902;9.410;2023-01-23T10:00:25;530.00;;;178.80;;
9186;SDS011;7273;48.902;9.410;2023-01-23T10:02:56;529.90;;;178.63;;
9186;SDS011;7273;48.902;9.410;2023-01-23T10:05:30;530.53;;;178.00;;
9186;SDS011;7273;48.902;9.410;2023-01-23T10:10:52;526.88;;;177.32;;
9186;SDS011;7273;48.902;9.410;2023-01-23T10:21:30;532.97;;;181.50;;
9186;SDS011;7273;48.902;9.410;2023-01-23T10:24:02;532.95;;;180.18;;
9186;SDS011;7273;48.902;9.410;2023-01-23T10:26:42;534.15;;;181.93;;
9186;SDS011;7273;48.902;9.410;2023-01-23T10:29:17;538.30;;;182.70;;
9186;SDS011;7273;48.902;9.410;2023-01-23T10:31:52;533.35;;;179.32;;
9186;SDS011;7273;48.902;9.410;2023-01-23T10:36:54;536.58;;;181.45;;
9186;SDS011;7273;48.902;9.410;2023-01-23T10:39:59;534.45;;;178.93;;
9186;SDS011;7273;48.902;9.410;2023-01-23T10:42:29;534.10;;;178.82;;
9186;SDS011;7273;48.902;9.410;2023-01-23T10:44:55;544.55;;;183.35;;
9186;SDS011;7273;48.902;9.410;2023-01-23T10:49:55;541.42;;;181.15;;
9186;SDS011;7273;48.902;9.410;2023-01-23T10:55:29;543.67;;;183.43;;
9186;SDS011;7273;48.902;9.410;2023-01-23T10:57:59;544.20;;;181.70;;
9186;SDS011;7273;48.902;9.410;2023-01-23T11:00:36;542.33;;;181.13;;
9186;SDS011;7273;48.902;9.410;2023-01-23T11:05:53;542.72;;;181.63;;
9186;SDS011;7273;48.902;9.410;2023-01-23T11:13:44;549.58;;;183.98;;
9186;SDS011;7273;48.902;9.410;2023-01-23T11:16:21;545.67;;;181.40;;
9186;SDS011;7273;48.902;9.410;2023-01-23T11:21:32;545.65;;;181.68;;
9186;SDS011;7273;48.902;9.410;2023-01-23T11:24:11;548.85;;;181.90;;
9186;SDS011;7273;48.902;9.410;2023-01-23T11:26:41;550.40;;;183.40;;
9186;SDS011;7273;48.902;9.410;2023-01-23T11:29:23;549.13;;;182.65;;
9186;SDS011;7273;48.902;9.410;2023-01-23T11:31:57;547.70;;;182.38;;
9186;SDS011;7273;48.902;9.410;2023-01-23T11:34:43;548.58;;;182.32;;
9186;SDS011;7273;48.902;9.410;2023-01-23T11:39:41;549.37;;;182.37;;
9186;SDS011;7273;48.902;9.410;2023-01-23T11:42:13;550.45;;;182.32;;
9186;SDS011;7273;48.902;9.410;2023-01-23T11:44:39;550.33;;;181.95;;
9186;SDS011;7273;48.902;9.410;2023-01-23T12:01:11;556.67;;;183.65;;
9186;SDS011;7273;48.902;9.410;2023-01-23T12:11:55;564.33;;;185.00;;
9186;SDS011;7273;48.902;9.410;2023-01-23T12:17:41;566.05;;;188.30;;
9186;SDS011;7273;48.902;9.410;2023-01-23T12:25:47;563.35;;;186.13;;
9186;SDS011;7273;48.902;9.410;2023-01-23T12:42:19;568.05;;;189.07;;
9186;SDS011;7273;48.902;9.410;2023-01-23T12:47:26;574.42;;;190.52;;
9186;SDS011;7273;48.902;9.410;2023-01-23T12:50:02;571.75;;;188.13;;
9186;SDS011;7273;48.902;9.410;2023-01-23T12:52:42;574.78;;;189.82;;
9186;SDS011;7273;48.902;9.410;2023-01-23T12:55:27;576.75;;;189.60;;
9186;SDS011;7273;48.902;9.410;2023-01-23T12:57:59;575.75;;;189.27;;
9186;SDS011;7273;48.902;9.410;2023-01-23T13:08:56;580.95;;;190.38;;
9186;SDS011;7273;48.902;9.410;2023-01-23T13:16:57;579.80;;;188.52;;
9186;SDS011;7273;48.902;9.410;2023-01-23T13:19:30;583.88;;;190.70;;
9186;SDS011;7273;48.902;9.410;2023-01-23T13:22:25;584.50;;;191.73;;
9186;SDS011;7273;48.902;9.410;2023-01-23T13:27:37;585.50;;;192.10;;
9186;SDS011;7273;48.902;9.410;2023-01-23T13:32:46;585.25;;;191.05;;
9186;SDS011;7273;48.902;9.410;2023-01-23T13:46:25;580.25;;;188.05;;
9186;SDS011;7273;48.902;9.410;2023-01-23T13:49:07;582.97;;;188.68;;
9186;SDS011;7273;48.902;9.410;2023-01-23T13:52:11;582.72;;;189.02;;
9186;SDS011;7273;48.902;9.410;2023-01-23T13:55:00;583.35;;;190.05;;
9186;SDS011;7273;48.902;9.410;2023-01-23T13:57:47;582.15;;;189.02;;
9186;SDS011;7273;48.902;9.410;2023-01-23T14:00:17;586.40;;;190.38;;
9186;SDS011;7273;48.902;9.410;2023-01-23T14:03:31;583.78;;;189.80;;
9186;SDS011;7273;48.902;9.410;2023-01-23T14:06:08;584.85;;;191.18;;
9186;SDS011;7273;48.902;9.410;2023-01-23T14:08:46;586.70;;;191.15;;
9186;SDS011;7273;48.902;9.410;2023-01-23T14:11:16;584.92;;;191.52;;
9186;SDS011;7273;48.902;9.410;2023-01-23T14:13:47;586.63;;;190.38;;
9186;SDS011;7273;48.902;9.410;2023-01-23T14:16:13;586.58;;;190.93;;
9186;SDS011;7273;48.902;9.410;2023-01-23T14:18:48;584.97;;;190.63;;
9186;SDS011;7273;48.902;9.410;2023-01-23T14:21:20;586.78;;;191.27;;
9186;SDS011;7273;48.902;9.410;2023-01-23T14:23:54;584.50;;;190.48;;
9186;SDS011;7273;48.902;9.410;2023-01-23T14:29:35;576.30;;;190.68;;
9186;SDS011;7273;48.902;9.410;2023-01-23T14:31:48;577.50;;;191.40;;
9186;SDS011;7273;48.902;9.410;2023-01-23T14:34:24;580.63;;;190.82;;
9186;SDS011;7273;48.902;9.410;2023-01-23T14:36:52;583.28;;;192.75;;
9186;SDS011;7273;48.902;9.410;2023-01-23T14:39:26;581.53;;;191.75;;
9186;SDS011;7273;48.902;9.410;2023-01-23T14:41:54;583.17;;;192.68;;
9186;SDS011;7273;48.902;9.410;2023-01-23T14:44:23;582.95;;;192.85;;
9186;SDS011;7273;48.902;9.410;2023-01-23T14:47:14;577.33;;;191.15;;
9186;SDS011;7273;48.902;9.410;2023-01-23T14:49:44;581.72;;;193.25;;
9186;SDS011;7273;48.902;9.410;2023-01-23T14:55:17;582.88;;;193.07;;
9186;SDS011;7273;48.902;9.410;2023-01-23T14:57:45;580.88;;;192.85;;
9186;SDS011;7273;48.902;9.410;2023-01-23T15:00:12;581.38;;;193.25;;
9186;SDS011;7273;48.902;9.410;2023-01-23T15:02:41;580.95;;;192.57;;
9186;SDS011;7273;48.902;9.410;2023-01-23T15:05:17;577.15;;;190.40;;
9186;SDS011;7273;48.902;9.410;2023-01-23T15:07:57;578.53;;;191.18;;
9186;SDS011;7273;48.902;9.410;2023-01-23T15:10:28;543.00;;;173.50;;
9186;SDS011;7273;48.902;9.410;2023-01-23T15:15:58;537.65;;;172.35;;
9186;SDS011;7273;48.902;9.410;2023-01-23T15:18:26;540.05;;;172.85;;
9186;SDS011;7273;48.902;9.410;2023-01-23T15:20:54;544.47;;;174.38;;
9186;SDS011;7273;48.902;9.410;2023-01-23T15:26:07;583.53;;;194.98;;
9186;SDS011;7273;48.902;9.410;2023-01-23T15:39:19;578.78;;;193.65;;
9186;SDS011;7273;48.902;9.410;2023-01-23T15:41:58;578.08;;;192.35;;
9186;SDS011;7273;48.902;9.410;2023-01-23T15:44:26;582.90;;;193.75;;
9186;SDS011;7273;48.902;9.410;2023-01-23T15:46:53;578.28;;;192.23;;
9186;SDS011;7273;48.902;9.410;2023-01-23T15:49:20;583.08;;;194.02;;
9186;SDS011;7273;48.902;9.410;2023-01-23T15:51:45;582.05;;;192.35;;
9186;SDS011;7273;48.902;9.410;2023-01-23T15:54:17;583.90;;;193.27;;
9186;SDS011;7273;48.902;9.410;2023-01-23T15:56:46;583.60;;;193.02;;
9186;SDS011;7273;48.902;9.410;2023-01-23T15:59:15;584.92;;;193.63;;
9186;SDS011;7273;48.902;9.410;2023-01-23T16:01:42;581.22;;;192.05;;
9186;SDS011;7273;48.902;9.410;2023-01-23T16:04:08;581.83;;;192.30;;
9186;SDS011;7273;48.902;9.410;2023-01-23T16:06:33;582.03;;;192.27;;
9186;SDS011;7273;48.902;9.410;2023-01-23T16:08:59;585.13;;;193.68;;
9186;SDS011;7273;48.902;9.410;2023-01-23T16:11:25;581.13;;;192.15;;
9186;SDS011;7273;48.902;9.410;2023-01-23T16:13:54;581.65;;;192.07;;
9186;SDS011;7273;48.902;9.410;2023-01-23T16:16:19;579.60;;;192.50;;
9186;SDS011;7273;48.902;9.410;2023-01-23T16:18:45;583.35;;;195.02;;
9186;SDS011;7273;48.902;9.410;2023-01-23T16:21:14;584.10;;;193.83;;
9186;SDS011;7273;48.902;9.410;2023-01-23T16:23:41;592.60;;;196.43;;
9186;SDS011;7273;48.902;9.410;2023-01-23T16:26:25;592.33;;;197.85;;
9186;SDS011;7273;48.902;9.410;2023-01-23T16:28:52;590.58;;;197.88;;
9186;SDS011;7273;48.902;9.410;2023-01-23T16:31:18;591.33;;;197.73;;
9186;SDS011;7273;48.902;9.410;2023-01-23T16:33:44;592.72;;;198.63;;
9186;SDS011;7273;48.902;9.410;2023-01-23T16:36:11;588.72;;;197.23;;
9186;SDS011;7273;48.902;9.410;2023-01-23T16:38:38;588.70;;;196.70;;
9186;SDS011;7273;48.902;9.410;2023-01-23T16:41:04;587.45;;;195.82;;
9186;SDS011;7273;48.902;9.410;2023-01-23T16:43:29;592.83;;;198.65;;
9186;SDS011;7273;48.902;9.410;2023-01-23T16:45:55;590.10;;;196.40;;
9186;SDS011;7273;48.902;9.410;2023-01-23T16:48:21;587.22;;;196.63;;
9186;SDS011;7273;48.902;9.410;2023-01-23T16:50:52;589.53;;;196.52;;
9186;SDS011;7273;48.902;9.410;2023-01-23T16:53:28;587.00;;;194.80;;
9186;SDS011;7273;48.902;9.410;2023-01-23T16:58:24;584.33;;;197.77;;
9186;SDS011;7273;48.902;9.410;2023-01-23T17:00:55;584.42;;;196.38;;